createdAt,value
2023-03-04T00:00:38.975Z,1019.84
2023-03-04T00:01:39.050Z,1019.88
2023-03-04T00:02:38.976Z,1019.90
2023-03-04T00:03:38.939Z,1019.88
2023-03-04T00:04:38.954Z,1019.86
2023-03-04T00:05:38.931Z,1019.89
2023-03-04T00:06:38.909Z,1019.91
2023-03-04T00:07:38.910Z,1019.88
2023-03-04T00:08:38.900Z,1019.91
2023-03-04T00:09:38.871Z,1019.89
2023-03-04T00:10:38.867Z,1019.86
2023-03-04T00:11:38.850Z,1019.90
2023-03-04T00:12:38.882Z,1019.88
2023-03-04T00:13:38.849Z,1019.89
2023-03-04T00:14:38.818Z,1019.85
2023-03-04T00:15:38.824Z,1019.86
2023-03-04T00:16:38.819Z,1019.87
2023-03-04T00:17:38.780Z,1019.88
2023-03-04T00:18:38.791Z,1019.83
2023-03-04T00:19:38.775Z,1019.81
2023-03-04T00:20:39.601Z,1019.87
2023-03-04T00:21:38.749Z,1019.81
2023-03-04T00:22:38.730Z,1019.77
2023-03-04T00:23:38.854Z,1019.80
2023-03-04T00:24:38.720Z,1019.79
2023-03-04T00:25:38.711Z,1019.80
2023-03-04T00:26:38.699Z,1019.81
2023-03-04T00:27:38.698Z,1019.86
2023-03-04T00:28:38.742Z,1019.83
2023-03-04T00:29:38.678Z,1019.85
2023-03-04T00:30:38.638Z,1019.83
2023-03-04T00:31:38.669Z,1019.86
2023-03-04T00:32:38.675Z,1019.76
2023-03-04T00:33:38.626Z,1019.85
2023-03-04T00:34:38.624Z,1019.77
2023-03-04T00:35:38.601Z,1019.77
2023-03-04T00:36:38.573Z,1019.82
2023-03-04T00:37:38.575Z,1019.79
2023-03-04T00:38:38.553Z,1019.78
2023-03-04T00:39:38.572Z,1019.78
2023-03-04T00:40:38.539Z,1019.77
2023-03-04T00:41:38.528Z,1019.78
2023-03-04T00:42:38.501Z,1019.79
2023-03-04T00:43:38.500Z,1019.76
2023-03-04T00:44:38.538Z,1019.72
2023-03-04T00:45:38.561Z,1019.72
2023-03-04T00:46:38.468Z,1019.70
2023-03-04T00:47:38.440Z,1019.71
2023-03-04T00:48:38.457Z,1019.67
2023-03-04T00:49:38.422Z,1019.69
2023-03-04T00:50:38.446Z,1019.65
2023-03-04T00:51:38.394Z,1019.63
2023-03-04T00:52:38.398Z,1019.64
2023-03-04T00:53:38.372Z,1019.66
2023-03-04T00:54:38.373Z,1019.69
2023-03-04T00:55:38.379Z,1019.65
2023-03-04T00:56:38.343Z,1019.66
2023-03-04T00:57:38.326Z,1019.63
2023-03-04T00:58:38.334Z,1019.54
2023-03-04T00:59:38.321Z,1019.59
2023-03-04T01:00:38.350Z,1019.55
2023-03-04T01:01:38.427Z,1019.53
2023-03-04T01:02:38.367Z,1019.61
2023-03-04T01:03:38.283Z,1019.58
2023-03-04T01:04:38.256Z,1019.56
2023-03-04T01:05:38.251Z,1019.56
2023-03-04T01:06:38.243Z,1019.53
2023-03-04T01:07:38.219Z,1019.61
2023-03-04T01:08:38.221Z,1019.62
2023-03-04T01:09:38.191Z,1019.63
2023-03-04T01:10:38.184Z,1019.62
2023-03-04T01:11:38.185Z,1019.63
2023-03-04T01:12:38.164Z,1019.56
2023-03-04T01:13:38.164Z,1019.58
2023-03-04T01:14:38.155Z,1019.56
2023-03-04T01:15:38.136Z,1019.54
2023-03-04T01:16:38.245Z,1019.54
2023-03-04T01:17:38.245Z,1019.57
2023-03-04T01:18:38.098Z,1019.54
2023-03-04T01:19:38.079Z,1019.55
2023-03-04T01:20:38.069Z,1019.52
2023-03-04T01:21:38.069Z,1019.51
2023-03-04T01:22:38.062Z,1019.53
2023-03-04T01:23:38.050Z,1019.53
2023-03-04T01:24:38.027Z,1019.49
2023-03-04T01:25:38.024Z,1019.50
2023-03-04T01:26:38.025Z,1019.49
2023-03-04T01:27:37.985Z,1019.47
2023-03-04T01:28:37.997Z,1019.46
2023-03-04T01:29:37.975Z,1019.45
2023-03-04T01:30:38.054Z,1019.45
2023-03-04T01:31:37.965Z,1019.40
2023-03-04T01:32:38.002Z,1019.37
2023-03-04T01:33:37.981Z,1019.40
2023-03-04T01:34:37.926Z,1019.40
2023-03-04T01:35:37.933Z,1019.35
2023-03-04T01:36:37.891Z,1019.36
2023-03-04T01:37:37.904Z,1019.34
2023-03-04T01:38:37.871Z,1019.34
2023-03-04T01:39:37.865Z,1019.30
2023-03-04T01:40:37.848Z,1019.29
2023-03-04T01:41:37.829Z,1019.32
2023-03-04T01:42:37.870Z,1019.26
2023-03-04T01:43:37.822Z,1019.32
2023-03-04T01:44:37.813Z,1019.28
2023-03-04T01:45:40.055Z,1019.27
2023-03-04T01:46:37.860Z,1019.24
2023-03-04T01:47:37.777Z,1019.23
2023-03-04T01:48:37.854Z,1019.20
2023-03-04T01:49:37.783Z,1019.23
2023-03-04T01:50:37.738Z,1019.21
2023-03-04T01:51:37.718Z,1019.19
2023-03-04T01:52:37.736Z,1019.19
2023-03-04T01:53:37.696Z,1019.17
2023-03-04T01:54:37.703Z,1019.19
2023-03-04T01:55:37.692Z,1019.18
2023-03-04T01:56:37.671Z,1019.14
2023-03-04T01:57:37.666Z,1019.15
2023-03-04T01:58:37.658Z,1019.11
2023-03-04T01:59:37.629Z,1019.09
2023-03-04T02:00:37.634Z,1019.09
2023-03-04T02:01:37.687Z,1019.09
2023-03-04T02:02:37.624Z,1019.11
2023-03-04T02:03:37.597Z,1019.12
2023-03-04T02:04:37.647Z,1019.10
2023-03-04T02:05:37.584Z,1019.11
2023-03-04T02:06:37.552Z,1019.16
2023-03-04T02:07:37.569Z,1019.06
2023-03-04T02:08:37.533Z,1019.10
2023-03-04T02:09:37.521Z,1019.12
2023-03-04T02:10:37.532Z,1019.09
2023-03-04T02:11:37.510Z,1019.05
2023-03-04T02:12:37.520Z,1019.05
2023-03-04T02:13:37.480Z,1018.99
2023-03-04T02:14:37.480Z,1019.07
2023-03-04T02:15:37.451Z,1019.06
2023-03-04T02:16:37.468Z,1019.05
2023-03-04T02:17:37.476Z,1019.06
2023-03-04T02:18:37.418Z,1019.01
2023-03-04T02:19:37.404Z,1019.02
2023-03-04T02:20:37.428Z,1019.04
2023-03-04T02:21:37.431Z,1019.00
2023-03-04T02:22:37.393Z,1018.97
2023-03-04T02:23:37.360Z,1018.99
2023-03-04T02:24:37.363Z,1018.96
2023-03-04T02:25:37.353Z,1018.98
2023-03-04T02:26:37.332Z,1018.99
2023-03-04T02:27:37.345Z,1018.96
2023-03-04T02:28:37.352Z,1018.99
2023-03-04T02:29:37.297Z,1018.95
2023-03-04T02:30:37.297Z,1018.97
2023-03-04T02:31:37.341Z,1018.96
2023-03-04T02:32:37.298Z,1018.95
2023-03-04T02:33:37.263Z,1018.96
2023-03-04T02:34:37.258Z,1018.93
2023-03-04T02:35:37.307Z,1018.95
2023-03-04T02:36:37.231Z,1018.91
2023-03-04T02:37:37.228Z,1018.92
2023-03-04T02:38:37.220Z,1018.92
2023-03-04T02:39:37.195Z,1018.95
2023-03-04T02:40:37.190Z,1018.93
2023-03-04T02:41:37.178Z,1018.91
2023-03-04T02:42:37.161Z,1018.92
2023-03-04T02:43:37.152Z,1018.90
2023-03-04T02:44:37.140Z,1018.89
2023-03-04T02:45:37.115Z,1018.92
2023-03-04T02:46:37.263Z,1018.87
2023-03-04T02:47:37.092Z,1018.86
2023-03-04T02:48:37.096Z,1018.89
2023-03-04T02:49:37.092Z,1018.84
2023-03-04T02:50:37.053Z,1018.85
2023-03-04T02:51:37.065Z,1018.84
2023-03-04T02:52:37.046Z,1018.84
2023-03-04T02:53:37.071Z,1018.83
2023-03-04T02:54:37.013Z,1018.82
2023-03-04T02:55:37.022Z,1018.84
2023-03-04T02:56:36.990Z,1018.82
2023-03-04T02:57:36.981Z,1018.83
2023-03-04T02:58:36.982Z,1018.86
2023-03-04T02:59:36.988Z,1018.86
2023-03-04T03:00:36.951Z,1018.85
2023-03-04T03:01:36.989Z,1018.81
2023-03-04T03:02:36.946Z,1018.79
2023-03-04T03:03:36.932Z,1018.78
2023-03-04T03:04:36.900Z,1018.80
2023-03-04T03:05:36.894Z,1018.80
2023-03-04T03:06:36.877Z,1018.76
2023-03-04T03:07:36.881Z,1018.76
2023-03-04T03:08:36.872Z,1018.77
2023-03-04T03:09:36.882Z,1018.77
2023-03-04T03:10:36.858Z,1018.75
2023-03-04T03:11:36.825Z,1018.76
2023-03-04T03:12:36.829Z,1018.75
2023-03-04T03:13:36.837Z,1018.72
2023-03-04T03:14:36.801Z,1018.72
2023-03-04T03:15:36.779Z,1018.69
2023-03-04T03:16:36.818Z,1018.70
2023-03-04T03:17:36.769Z,1018.71
2023-03-04T03:18:36.768Z,1018.70
2023-03-04T03:19:36.740Z,1018.69
2023-03-04T03:20:36.731Z,1018.70
2023-03-04T03:21:36.727Z,1018.66
2023-03-04T03:22:36.693Z,1018.69
2023-03-04T03:23:36.703Z,1018.68
2023-03-04T03:24:36.669Z,1018.67
2023-03-04T03:25:36.688Z,1018.64
2023-03-04T03:26:36.668Z,1018.66
2023-03-04T03:27:36.654Z,1018.64
2023-03-04T03:28:36.645Z,1018.64
2023-03-04T03:29:36.628Z,1018.63
2023-03-04T03:30:36.612Z,1018.65
2023-03-04T03:31:36.678Z,1018.64
2023-03-04T03:32:36.650Z,1018.60
2023-03-04T03:33:36.587Z,1018.60
2023-03-04T03:34:36.580Z,1018.57
2023-03-04T03:35:36.637Z,1018.61
2023-03-04T03:36:36.608Z,1018.57
2023-03-04T03:37:36.536Z,1018.57
2023-03-04T03:38:36.529Z,1018.56
2023-03-04T03:39:36.518Z,1018.53
2023-03-04T03:40:36.504Z,1018.52
2023-03-04T03:41:36.519Z,1018.56
2023-03-04T03:42:36.464Z,1018.47
2023-03-04T03:43:36.473Z,1018.51
2023-03-04T03:44:36.441Z,1018.50
2023-03-04T03:45:36.736Z,1018.51
2023-03-04T03:46:36.417Z,1018.52
2023-03-04T03:47:36.423Z,1018.49
2023-03-04T03:48:36.432Z,1018.49
2023-03-04T03:49:36.408Z,1018.46
2023-03-04T03:50:36.372Z,1018.49
2023-03-04T03:51:36.383Z,1018.47
2023-03-04T03:52:36.363Z,1018.42
2023-03-04T03:53:36.359Z,1018.43
2023-03-04T03:54:36.561Z,1018.40
2023-03-04T03:55:36.322Z,1018.44
2023-03-04T03:56:36.321Z,1018.42
2023-03-04T03:57:36.334Z,1018.44
2023-03-04T03:58:36.300Z,1018.45
2023-03-04T03:59:36.315Z,1018.45
2023-03-04T04:00:36.260Z,1018.49
2023-03-04T04:01:36.322Z,1018.46
2023-03-04T04:02:36.389Z,1018.48
2023-03-04T04:03:36.249Z,1018.47
2023-03-04T04:04:36.233Z,1018.42
2023-03-04T04:05:36.209Z,1018.43
2023-03-04T04:06:36.204Z,1018.44
2023-03-04T04:07:36.206Z,1018.46
2023-03-04T04:08:36.180Z,1018.47
2023-03-04T04:09:36.194Z,1018.47
2023-03-04T04:10:36.157Z,1018.45
2023-03-04T04:11:36.157Z,1018.42
2023-03-04T04:12:36.140Z,1018.42
2023-03-04T04:13:39.142Z,1018.43
2023-03-04T04:14:36.120Z,1018.43
2023-03-04T04:15:36.108Z,1018.46
2023-03-04T04:16:36.155Z,1018.46
2023-03-04T04:17:36.079Z,1018.44
2023-03-04T04:18:36.062Z,1018.46
2023-03-04T04:19:36.085Z,1018.43
2023-03-04T04:20:36.070Z,1018.40
2023-03-04T04:21:36.033Z,1018.41
2023-03-04T04:22:36.016Z,1018.35
2023-03-04T04:23:36.014Z,1018.36
2023-03-04T04:24:35.998Z,1018.42
2023-03-04T04:25:36.011Z,1018.42
2023-03-04T04:26:35.996Z,1018.44
2023-03-04T04:27:35.998Z,1018.37
2023-03-04T04:28:35.954Z,1018.38
2023-03-04T04:29:36.000Z,1018.38
2023-03-04T04:30:36.030Z,1018.34
2023-03-04T04:31:35.952Z,1018.34
2023-03-04T04:32:35.960Z,1018.34
2023-03-04T04:33:35.907Z,1018.38
2023-03-04T04:34:35.878Z,1018.34
2023-03-04T04:35:36.002Z,1018.36
2023-03-04T04:36:35.876Z,1018.31
2023-03-04T04:37:35.874Z,1018.30
2023-03-04T04:38:35.860Z,1018.33
2023-03-04T04:39:35.844Z,1018.34
2023-03-04T04:40:35.847Z,1018.35
2023-03-04T04:41:35.796Z,1018.34
2023-03-04T04:42:35.787Z,1018.34
2023-03-04T04:43:35.788Z,1018.35
2023-03-04T04:44:35.843Z,1018.36
2023-03-04T04:45:35.828Z,1018.33
2023-03-04T04:46:35.854Z,1018.34
2023-03-04T04:47:35.740Z,1018.37
2023-03-04T04:48:35.726Z,1018.38
2023-03-04T04:49:35.719Z,1018.33
2023-03-04T04:50:35.716Z,1018.32
2023-03-04T04:51:35.684Z,1018.34
2023-03-04T04:52:35.680Z,1018.34
2023-03-04T04:53:35.661Z,1018.33
2023-03-04T04:54:35.649Z,1018.34
2023-03-04T04:55:35.668Z,1018.37
2023-03-04T04:56:35.640Z,1018.38
2023-03-04T04:57:35.627Z,1018.38
2023-03-04T04:58:35.596Z,1018.36
2023-03-04T04:59:35.606Z,1018.39
2023-03-04T05:00:35.610Z,1018.37
2023-03-04T05:01:35.692Z,1018.38
2023-03-04T05:02:35.554Z,1018.38
2023-03-04T05:03:35.600Z,1018.40
2023-03-04T05:04:35.545Z,1018.41
2023-03-04T05:05:35.601Z,1018.42
2023-03-04T05:06:35.529Z,1018.42
2023-03-04T05:07:35.509Z,1018.42
2023-03-04T05:08:35.501Z,1018.43
2023-03-04T05:09:35.493Z,1018.38
2023-03-04T05:10:35.500Z,1018.43
2023-03-04T05:11:35.459Z,1018.45
2023-03-04T05:12:35.476Z,1018.43
2023-03-04T05:13:35.460Z,1018.45
2023-03-04T05:14:35.438Z,1018.44
2023-03-04T05:15:35.500Z,1018.42
2023-03-04T05:16:35.409Z,1018.42
2023-03-04T05:17:35.415Z,1018.39
2023-03-04T05:18:35.380Z,1018.40
2023-03-04T05:19:35.368Z,1018.43
2023-03-04T05:20:35.387Z,1018.42
2023-03-04T05:21:35.359Z,1018.39
2023-03-04T05:22:35.332Z,1018.41
2023-03-04T05:23:35.325Z,1018.42
2023-03-04T05:24:35.324Z,1018.40
2023-03-04T05:25:35.321Z,1018.39
2023-03-04T05:26:35.298Z,1018.36
2023-03-04T05:27:35.287Z,1018.39
2023-03-04T05:28:35.284Z,1018.36
2023-03-04T05:29:35.270Z,1018.38
2023-03-04T05:30:35.268Z,1018.37
2023-03-04T05:31:35.252Z,1018.38
2023-03-04T05:32:35.301Z,1018.40
2023-03-04T05:33:35.237Z,1018.43
2023-03-04T05:34:35.194Z,1018.39
2023-03-04T05:35:35.229Z,1018.36
2023-03-04T05:36:35.195Z,1018.40
2023-03-04T05:37:35.164Z,1018.40
2023-03-04T05:38:35.151Z,1018.42
2023-03-04T05:39:35.154Z,1018.44
2023-03-04T05:40:35.141Z,1018.44
2023-03-04T05:41:35.153Z,1018.45
2023-03-04T05:42:35.104Z,1018.44
2023-03-04T05:43:35.097Z,1018.45
2023-03-04T05:44:35.098Z,1018.42
2023-03-04T05:45:35.107Z,1018.47
2023-03-04T05:46:35.151Z,1018.47
2023-03-04T05:47:35.079Z,1018.49
2023-03-04T05:48:35.037Z,1018.52
2023-03-04T05:49:35.058Z,1018.51
2023-03-04T05:50:35.012Z,1018.53
2023-03-04T05:51:35.048Z,1018.53
2023-03-04T05:52:35.025Z,1018.54
2023-03-04T05:53:34.996Z,1018.53
2023-03-04T05:54:34.985Z,1018.51
2023-03-04T05:55:34.976Z,1018.52
2023-03-04T05:56:34.945Z,1018.54
2023-03-04T05:57:34.944Z,1018.51
2023-03-04T05:58:34.956Z,1018.52
2023-03-04T05:59:34.922Z,1018.48
2023-03-04T06:00:34.899Z,1018.50
2023-03-04T06:01:34.892Z,1018.52
2023-03-04T06:02:34.913Z,1018.54
2023-03-04T06:03:34.940Z,1018.49
2023-03-04T06:04:34.875Z,1018.52
2023-03-04T06:05:34.868Z,1018.52
2023-03-04T06:06:34.852Z,1018.56
2023-03-04T06:07:34.832Z,1018.56
2023-03-04T06:08:34.830Z,1018.55
2023-03-04T06:09:34.817Z,1018.58
2023-03-04T06:10:34.798Z,1018.57
2023-03-04T06:11:36.392Z,1018.56
2023-03-04T06:12:34.777Z,1018.58
2023-03-04T06:13:34.781Z,1018.61
2023-03-04T06:14:34.756Z,1018.58
2023-03-04T06:15:34.773Z,1018.60
2023-03-04T06:16:34.732Z,1018.61
2023-03-04T06:17:34.724Z,1018.59
2023-03-04T06:18:34.719Z,1018.62
2023-03-04T06:19:34.693Z,1018.63
2023-03-04T06:20:34.691Z,1018.60
2023-03-04T06:21:34.704Z,1018.61
2023-03-04T06:22:34.656Z,1018.64
2023-03-04T06:23:34.674Z,1018.66
2023-03-04T06:24:34.627Z,1018.66
2023-03-04T06:25:34.622Z,1018.63
2023-03-04T06:26:34.618Z,1018.63
2023-03-04T06:27:34.599Z,1018.66
2023-03-04T06:28:34.601Z,1018.64
2023-03-04T06:29:34.592Z,1018.62
2023-03-04T06:30:34.572Z,1018.63
2023-03-04T06:31:34.711Z,1018.62
2023-03-04T06:32:34.594Z,1018.64
2023-03-04T06:33:34.553Z,1018.61
2023-03-04T06:34:34.512Z,1018.66
2023-03-04T06:35:34.538Z,1018.67
2023-03-04T06:36:34.493Z,1018.72
2023-03-04T06:37:34.517Z,1018.69
2023-03-04T06:38:34.482Z,1018.71
2023-03-04T06:39:34.478Z,1018.71
2023-03-04T06:40:34.444Z,1018.69
2023-03-04T06:41:34.446Z,1018.71
2023-03-04T06:42:34.441Z,1018.74
2023-03-04T06:43:34.432Z,1018.72
2023-03-04T06:44:34.430Z,1018.72
2023-03-04T06:45:34.393Z,1018.72
2023-03-04T06:46:34.419Z,1018.77
2023-03-04T06:47:34.394Z,1018.74
2023-03-04T06:48:34.395Z,1018.75
2023-03-04T06:49:34.392Z,1018.76
2023-03-04T06:50:34.374Z,1018.81
2023-03-04T06:51:34.327Z,1018.77
2023-03-04T06:52:34.308Z,1018.81
2023-03-04T06:53:34.334Z,1018.80
2023-03-04T06:54:34.307Z,1018.80
2023-03-04T06:55:34.280Z,1018.82
2023-03-04T06:56:34.268Z,1018.84
2023-03-04T06:57:34.256Z,1018.85
2023-03-04T06:58:34.255Z,1018.84
2023-03-04T06:59:34.273Z,1018.85
2023-03-04T07:00:34.322Z,1018.83
2023-03-04T07:01:34.236Z,1018.83
2023-03-04T07:02:34.229Z,1018.89
2023-03-04T07:03:34.195Z,1018.88
2023-03-04T07:04:34.195Z,1018.86
2023-03-04T07:05:34.178Z,1018.89
2023-03-04T07:06:34.177Z,1018.87
2023-03-04T07:07:34.147Z,1018.87
2023-03-04T07:08:34.145Z,1018.90
2023-03-04T07:09:34.135Z,1018.87
2023-03-04T07:10:34.134Z,1018.88
2023-03-04T07:11:34.109Z,1018.96
2023-03-04T07:12:34.108Z,1018.97
2023-03-04T07:13:34.081Z,1018.90
2023-03-04T07:14:34.068Z,1018.90
2023-03-04T07:15:34.070Z,1018.98
2023-03-04T07:16:34.142Z,1018.94
2023-03-04T07:17:34.036Z,1018.94
2023-03-04T07:18:34.029Z,1018.95
2023-03-04T07:19:34.031Z,1018.94
2023-03-04T07:20:34.004Z,1019.01
2023-03-04T07:21:34.071Z,1019.01
2023-03-04T07:22:33.986Z,1019.04
2023-03-04T07:23:33.957Z,1019.00
2023-03-04T07:24:33.965Z,1019.01
2023-03-04T07:25:33.982Z,1019.02
2023-03-04T07:26:33.925Z,1019.02
2023-03-04T07:27:33.940Z,1019.03
2023-03-04T07:28:33.901Z,1019.06
2023-03-04T07:29:33.888Z,1019.04
2023-03-04T07:30:33.912Z,1019.09
2023-03-04T07:31:33.906Z,1019.15
2023-03-04T07:32:34.761Z,1019.11
2023-03-04T07:33:33.857Z,1019.09
2023-03-04T07:34:33.857Z,1019.07
2023-03-04T07:35:33.858Z,1019.06
2023-03-04T07:36:33.841Z,1019.07
2023-03-04T07:37:33.844Z,1019.06
2023-03-04T07:38:33.802Z,1019.08
2023-03-04T07:39:33.786Z,1019.08
2023-03-04T07:40:33.781Z,1019.12
2023-03-04T07:41:33.800Z,1019.10
2023-03-04T07:42:33.743Z,1019.11
2023-03-04T07:43:33.754Z,1019.09
2023-03-04T07:44:33.722Z,1019.10
2023-03-04T07:45:33.762Z,1019.10
2023-03-04T07:46:33.714Z,1019.07
2023-03-04T07:47:33.701Z,1019.14
2023-03-04T07:48:33.687Z,1019.10
2023-03-04T07:49:33.676Z,1019.14
2023-03-04T07:50:33.656Z,1019.14
2023-03-04T07:51:33.657Z,1019.15
2023-03-04T07:52:33.648Z,1019.09
2023-03-04T07:53:33.640Z,1019.11
2023-03-04T07:54:33.613Z,1019.10
2023-03-04T07:55:33.613Z,1019.13
2023-03-04T07:56:33.605Z,1019.13
2023-03-04T07:57:33.612Z,1019.10
2023-03-04T07:58:33.563Z,1019.11
2023-03-04T07:59:33.550Z,1019.12
2023-03-04T08:00:33.557Z,1019.10
2023-03-04T08:01:33.540Z,1019.15
2023-03-04T08:02:33.616Z,1019.15
2023-03-04T08:03:33.519Z,1019.14
2023-03-04T08:04:33.534Z,1019.13
2023-03-04T08:05:33.498Z,1019.15
2023-03-04T08:06:33.492Z,1019.16
2023-03-04T08:07:33.472Z,1019.15
2023-03-04T08:08:33.455Z,1019.15
2023-03-04T08:09:33.453Z,1019.14
2023-03-04T08:10:33.427Z,1019.14
2023-03-04T08:11:33.444Z,1019.18
2023-03-04T08:12:33.408Z,1019.14
2023-03-04T08:13:33.418Z,1019.14
2023-03-04T08:14:33.394Z,1019.17
2023-03-04T08:15:33.433Z,1019.13
2023-03-04T08:16:33.369Z,1019.18
2023-03-04T08:17:33.371Z,1019.19
2023-03-04T08:18:33.365Z,1019.17
2023-03-04T08:19:33.323Z,1019.17
2023-03-04T08:20:33.311Z,1019.13
2023-03-04T08:21:33.295Z,1019.16
2023-03-04T08:22:33.308Z,1019.19
2023-03-04T08:23:33.357Z,1019.19
2023-03-04T08:24:33.264Z,1019.20
2023-03-04T08:25:33.251Z,1019.24
2023-03-04T08:26:33.269Z,1019.25
2023-03-04T08:27:33.260Z,1019.24
2023-03-04T08:28:33.219Z,1019.23
2023-03-04T08:29:33.241Z,1019.20
2023-03-04T08:30:33.224Z,1019.21
2023-03-04T08:31:33.391Z,1019.22
2023-03-04T08:32:33.386Z,1019.22
2023-03-04T08:33:33.193Z,1019.23
2023-03-04T08:34:33.161Z,1019.26
2023-03-04T08:35:33.177Z,1019.24
2023-03-04T08:36:33.136Z,1019.24
2023-03-04T08:37:33.129Z,1019.23
2023-03-04T08:38:33.130Z,1019.24
2023-03-04T08:39:33.153Z,1019.25
2023-03-04T08:40:33.097Z,1019.26
2023-03-04T08:41:33.113Z,1019.28
2023-03-04T08:42:33.082Z,1019.30
2023-03-04T08:43:33.070Z,1019.30
2023-03-04T08:44:33.045Z,1019.34
2023-03-04T08:45:33.065Z,1019.36
2023-03-04T08:46:33.091Z,1019.32
2023-03-04T08:47:33.001Z,1019.36
2023-03-04T08:48:33.028Z,1019.35
2023-03-04T08:49:32.994Z,1019.35
2023-03-04T08:50:32.968Z,1019.39
2023-03-04T08:51:32.960Z,1019.34
2023-03-04T08:52:32.950Z,1019.38
2023-03-04T08:53:32.968Z,1019.37
2023-03-04T08:54:32.936Z,1019.40
2023-03-04T08:55:32.937Z,1019.43
2023-03-04T08:56:32.911Z,1019.39
2023-03-04T08:57:32.905Z,1019.43
2023-03-04T08:58:32.880Z,1019.37
2023-03-04T08:59:32.880Z,1019.41
2023-03-04T09:00:32.896Z,1019.41
2023-03-04T09:01:32.915Z,1019.41
2023-03-04T09:02:32.848Z,1019.39
2023-03-04T09:03:32.911Z,1019.38
2023-03-04T09:04:32.852Z,1019.38
2023-03-04T09:05:32.814Z,1019.38
2023-03-04T09:06:32.798Z,1019.30
2023-03-04T09:07:32.788Z,1019.33
2023-03-04T09:08:32.782Z,1019.32
2023-03-04T09:09:32.764Z,1019.31
2023-03-04T09:10:32.758Z,1019.31
2023-03-04T09:11:32.728Z,1019.27
2023-03-04T09:12:32.765Z,1019.28
2023-03-04T09:13:32.711Z,1019.27
2023-03-04T09:14:32.733Z,1019.27
2023-03-04T09:15:32.683Z,1019.25
2023-03-04T09:16:32.689Z,1019.30
2023-03-04T09:17:32.689Z,1019.25
2023-03-04T09:18:32.653Z,1019.26
2023-03-04T09:19:32.655Z,1019.24
2023-03-04T09:20:32.639Z,1019.28
2023-03-04T09:21:32.627Z,1019.28
2023-03-04T09:22:32.608Z,1019.24
2023-03-04T09:23:32.598Z,1019.25
2023-03-04T09:24:32.620Z,1019.27
2023-03-04T09:25:32.583Z,1019.30
2023-03-04T09:26:32.574Z,1019.33
2023-03-04T09:27:32.566Z,1019.28
2023-03-04T09:28:32.583Z,1019.31
2023-03-04T09:29:32.523Z,1019.31
2023-03-04T09:30:32.550Z,1019.38
2023-03-04T09:31:32.580Z,1019.34
2023-03-04T09:32:32.576Z,1019.30
2023-03-04T09:33:32.521Z,1019.31
2023-03-04T09:34:32.511Z,1019.35
2023-03-04T09:35:32.518Z,1019.34
2023-03-04T09:36:32.458Z,1019.32
2023-03-04T09:37:32.450Z,1019.27
2023-03-04T09:38:32.427Z,1019.29
2023-03-04T09:39:32.428Z,1019.29
2023-03-04T09:40:32.432Z,1019.27
2023-03-04T09:41:32.390Z,1019.29
2023-03-04T09:42:32.381Z,1019.28
2023-03-04T09:43:32.382Z,1019.30
2023-03-04T09:44:32.380Z,1019.26
2023-03-04T09:45:32.367Z,1019.30
2023-03-04T09:46:32.379Z,1019.28
2023-03-04T09:47:32.356Z,1019.27
2023-03-04T09:48:32.328Z,1019.30
2023-03-04T09:49:32.342Z,1019.24
2023-03-04T09:50:32.325Z,1019.24
2023-03-04T09:51:32.277Z,1019.25
2023-03-04T09:52:32.286Z,1019.26
2023-03-04T09:53:32.264Z,1019.27
2023-03-04T09:54:32.256Z,1019.22
2023-03-04T09:55:32.246Z,1019.20
2023-03-04T09:56:32.236Z,1019.23
2023-03-04T09:57:32.209Z,1019.23
2023-03-04T09:58:32.197Z,1019.20
2023-03-04T09:59:32.230Z,1019.19
2023-03-04T10:00:32.290Z,1019.20
2023-03-04T10:01:32.172Z,1019.22
2023-03-04T10:02:32.151Z,1019.20
2023-03-04T10:03:32.163Z,1019.19
2023-03-04T10:04:32.153Z,1019.17
2023-03-04T10:05:32.164Z,1019.21
2023-03-04T10:06:32.120Z,1019.17
2023-03-04T10:07:32.109Z,1019.22
2023-03-04T10:08:32.095Z,1019.17
2023-03-04T10:09:32.084Z,1019.20
2023-03-04T10:10:32.120Z,1019.20
2023-03-04T10:11:32.044Z,1019.17
2023-03-04T10:12:32.051Z,1019.17
2023-03-04T10:13:32.037Z,1019.17
2023-03-04T10:14:32.016Z,1019.18
2023-03-04T10:15:32.017Z,1019.18
2023-03-04T10:16:32.018Z,1019.17
2023-03-04T10:17:31.990Z,1019.15
2023-03-04T10:18:31.973Z,1019.12
2023-03-04T10:19:31.968Z,1019.16
2023-03-04T10:20:31.987Z,1019.17
2023-03-04T10:21:31.961Z,1019.15
2023-03-04T10:22:31.939Z,1019.13
2023-03-04T10:23:31.908Z,1019.10
2023-03-04T10:24:31.923Z,1019.13
2023-03-04T10:25:31.922Z,1019.12
2023-03-04T10:26:31.893Z,1019.12
2023-03-04T10:27:31.880Z,1019.11
2023-03-04T10:28:31.870Z,1019.08
2023-03-04T10:29:31.900Z,1019.07
2023-03-04T10:30:31.827Z,1019.04
2023-03-04T10:31:31.879Z,1019.10
2023-03-04T10:32:31.960Z,1019.09
2023-03-04T10:33:31.822Z,1019.05
2023-03-04T10:34:31.792Z,1019.07
2023-03-04T10:35:31.813Z,1019.05
2023-03-04T10:36:31.795Z,1019.05
2023-03-04T10:37:31.759Z,1019.04
2023-03-04T10:38:31.732Z,1019.03
2023-03-04T10:39:31.742Z,1019.03
2023-03-04T10:40:31.719Z,1018.99
2023-03-04T10:41:32.017Z,1019.02
2023-03-04T10:42:31.852Z,1019.05
2023-03-04T10:43:31.693Z,1019.02
2023-03-04T10:44:31.691Z,1019.03
2023-03-04T10:45:31.680Z,1019.01
2023-03-04T10:46:31.647Z,1019.08
2023-03-04T10:47:31.675Z,1019.04
2023-03-04T10:48:31.629Z,1019.06
2023-03-04T10:49:31.628Z,1019.01
2023-03-04T10:50:31.601Z,1019.05
2023-03-04T10:51:31.600Z,1019.07
2023-03-04T10:52:31.585Z,1019.06
2023-03-04T10:53:31.606Z,1019.02
2023-03-04T10:54:31.582Z,1018.98
2023-03-04T10:55:31.526Z,1018.94
2023-03-04T10:56:31.550Z,1018.94
2023-03-04T10:57:31.504Z,1018.93
2023-03-04T10:58:31.511Z,1018.95
2023-03-04T10:59:31.525Z,1018.96
2023-03-04T11:00:31.476Z,1018.92
2023-03-04T11:01:31.504Z,1018.88
2023-03-04T11:02:31.451Z,1018.84
2023-03-04T11:03:31.545Z,1018.86
2023-03-04T11:04:31.436Z,1018.87
2023-03-04T11:05:31.418Z,1018.84
2023-03-04T11:06:31.409Z,1018.85
2023-03-04T11:07:35.837Z,1018.84
2023-03-04T11:08:32.381Z,1018.87
2023-03-04T11:09:31.407Z,1018.85
2023-03-04T11:10:31.371Z,1018.85
2023-03-04T11:11:31.344Z,1018.82
2023-03-04T11:12:31.350Z,1018.75
2023-03-04T11:13:31.323Z,1018.85
2023-03-04T11:14:31.320Z,1018.83
2023-03-04T11:15:31.310Z,1018.83
2023-03-04T11:16:31.446Z,1018.82
2023-03-04T11:17:31.303Z,1018.86
2023-03-04T11:18:31.262Z,1018.90
2023-03-04T11:19:31.268Z,1018.84
2023-03-04T11:20:31.268Z,1018.86
2023-03-04T11:21:31.257Z,1018.84
2023-03-04T11:22:31.239Z,1018.85
2023-03-04T11:23:31.241Z,1018.79
2023-03-04T11:24:31.215Z,1018.78
2023-03-04T11:25:31.213Z,1018.78
2023-03-04T11:26:31.189Z,1018.80
2023-03-04T11:27:31.180Z,1018.75
2023-03-04T11:28:31.172Z,1018.75
2023-03-04T11:29:31.178Z,1018.70
2023-03-04T11:30:31.120Z,1018.67
2023-03-04T11:31:31.139Z,1018.64
2023-03-04T11:32:31.157Z,1018.70
2023-03-04T11:33:31.091Z,1018.65
2023-03-04T11:34:31.096Z,1018.65
2023-03-04T11:35:31.100Z,1018.62
2023-03-04T11:36:31.061Z,1018.66
2023-03-04T11:37:31.069Z,1018.63
2023-03-04T11:38:31.066Z,1018.66
2023-03-04T11:39:31.037Z,1018.66
2023-03-04T11:40:31.041Z,1018.65
2023-03-04T11:41:31.063Z,1018.58
2023-03-04T11:42:31.032Z,1018.56
2023-03-04T11:43:31.014Z,1018.57
2023-03-04T11:44:30.982Z,1018.56
2023-03-04T11:45:32.918Z,1018.52
2023-03-04T11:46:30.997Z,1018.50
2023-03-04T11:47:30.968Z,1018.48
2023-03-04T11:48:30.969Z,1018.53
2023-03-04T11:49:30.950Z,1018.54
2023-03-04T11:50:30.951Z,1018.51
2023-03-04T11:51:30.933Z,1018.50
2023-03-04T11:52:30.933Z,1018.55
2023-03-04T11:53:30.938Z,1018.50
2023-03-04T11:54:30.895Z,1018.49
2023-03-04T11:55:30.869Z,1018.52
2023-03-04T11:56:30.861Z,1018.50
2023-03-04T11:57:30.893Z,1018.49
2023-03-04T11:58:30.830Z,1018.49
2023-03-04T11:59:30.832Z,1018.50
2023-03-04T12:00:30.828Z,1018.45
2023-03-04T12:01:30.815Z,1018.42
2023-03-04T12:02:30.794Z,1018.43
2023-03-04T12:03:30.834Z,1018.43
2023-03-04T12:04:30.908Z,1018.40
2023-03-04T12:05:30.799Z,1018.38